Mandoudi — SV3198 — position and weather

sailwx.info

Track history (hours):
 
Tides and Currents Weather Stations Pressure Air Temp Water Temp Dewpoint Dewpoint Depression Visibility Wind Speed Wind Dir Waves Ship Positions

Mandoudi

Last reported at 2014-Aug-23 03:33 UTC. Time now 2014-Aug-23 19:21 UTC.
Position N 37°58' E 023°37'.

Length 60 m; draft 4.6 m.

Type: Ship (hazmat cat A). MMSI: 237470200.

Date/timePositionNaut miles runAvg speedWind from/ knotsBaromVisibWave heightAir tempDewpointWater temp
2014-Aug-23 03:33N 37°58' E 023°37'0 0.0
2014-Aug-23 02:33N 37°58' E 023°37'0 0.0
2014-Aug-23 01:33N 37°58' E 023°37'0 0.0
2014-Aug-23 00:33N 37°58' E 023°37'0 0.0
2014-Aug-22 22:33N 37°58' E 023°37'0 0.0
2014-Aug-22 21:33N 37°58' E 023°37'0 0.0
2014-Aug-22 20:33N 37°58' E 023°37'0 0.0
2014-Aug-22 19:33N 37°58' E 023°37'0 0.0
2014-Aug-22 18:33N 37°58' E 023°37'0 0.0
2014-Aug-22 17:33N 37°58' E 023°37'0 0.0
2014-Aug-22 16:33N 37°58' E 023°37'0 0.0
2014-Aug-22 15:33N 37°58' E 023°37'0 0.0
2014-Aug-22 14:33N 37°58' E 023°37'0 0.0
2014-Aug-22 13:33N 37°58' E 023°37'0 0.0
2014-Aug-22 12:33N 37°58' E 023°37'1 1.0
2014-Aug-22 11:33N 37°57' E 023°36'5 1.2
2014-Aug-22 07:31N 38°02' E 023°35'0 0.2
2014-Aug-22 06:26N 38°02' E 023°35'0 0.0
2014-Aug-22 05:33N 38°02' E 023°35'2 1.6
2014-Aug-22 04:33N 38°00' E 023°34'5 5.3
2014-Aug-22 03:33N 37°56' E 023°38'0 0.3
2014-Aug-22 02:33N 37°57' E 023°38'0 0.0
2014-Aug-22 01:33N 37°57' E 023°38'2 1.5
2014-Aug-22 00:33N 37°58' E 023°37'0 0.0
2014-Aug-21 23:33N 37°58' E 023°37'0 0.0
2014-Aug-21 22:33N 37°58' E 023°37'0 0.0
2014-Aug-21 21:33N 37°58' E 023°37'0 0.0
2014-Aug-21 20:33N 37°58' E 023°37'0 0.0
2014-Aug-21 19:33N 37°58' E 023°37'0 0.0
2014-Aug-21 18:33N 37°58' E 023°37'0 0.0
2014-Aug-21 17:33N 37°58' E 023°37'0 0.0
2014-Aug-21 16:33N 37°58' E 023°37'0 0.0
2014-Aug-21 15:33N 37°58' E 023°37'0 0.0
2014-Aug-21 14:33N 37°58' E 023°37'0 0.0
2014-Aug-21 13:33N 37°58' E 023°37'0 0.0
2014-Aug-21 12:33N 37°58' E 023°37'0 0.0
2014-Aug-21 11:33N 37°58' E 023°37'1 1.4
2014-Aug-21 10:33N 37°57' E 023°38'0 0.0
2014-Aug-21 09:33N 37°57' E 023°38'0 0.0
2014-Aug-21 08:33N 37°57' E 023°38'0 0.3
2014-Aug-21 07:33N 37°56' E 023°38'0 0.0
2014-Aug-21 06:33N 37°56' E 023°38'0 0.0
2014-Aug-21 05:33N 37°56' E 023°38'4 4.2
2014-Aug-21 04:33N 37°58' E 023°33'4 4.2
2014-Aug-21 03:33N 38°01' E 023°31'0 0.0
2014-Aug-21 02:33N 38°01' E 023°31'0 0.0
2014-Aug-21 01:33N 38°01' E 023°31'0 0.0
2014-Aug-21 00:32N 38°01' E 023°31'0 0.0
2014-Aug-20 22:32N 38°02' E 023°31'0 0.0
2014-Aug-20 21:25N 38°02' E 023°31'1 0.1
2014-Aug-20 16:31N 38°02' E 023°31'0 0.0
2014-Aug-20 15:32N 38°02' E 023°31'0 0.0
2014-Aug-20 14:33N 38°02' E 023°31'1 0.9
2014-Aug-20 13:25N 38°01' E 023°31'0 0.0
2014-Aug-20 12:21N 38°01' E 023°31'6 0.8
2014-Aug-20 04:33N 37°57' E 023°37'1 1.4
2014-Aug-20 03:33N 37°57' E 023°38'0 0.0
2014-Aug-20 02:20N 37°57' E 023°38'2 0.1
2014-Aug-19 12:08N 37°57' E 023°36'2 2.1
2014-Aug-19 11:22N 37°57' E 023°38'0 0.0
2014-Aug-19 10:33N 37°57' E 023°38'0 0.0
2014-Aug-19 09:33N 37°57' E 023°38'0 0.0
2014-Aug-19 08:33N 37°57' E 023°38'0 0.1
2014-Aug-19 07:34N 37°57' E 023°38'0 0.2
2014-Aug-19 06:33N 37°57' E 023°38'1 0.9
2014-Aug-19 05:33N 37°56' E 023°37'6 5.2
2014-Aug-19 04:29N 38°00' E 023°32'2 1.6
2014-Aug-19 03:31N 38°02' E 023°31'0 0.0
2014-Aug-19 02:31N 38°02' E 023°31'0 0.0
2014-Aug-19 01:31N 38°02' E 023°31'0 0.0
2014-Aug-18 22:33N 38°02' E 023°31'0 0.0
2014-Aug-18 21:32N 38°02' E 023°31'0 0.0
2014-Aug-18 20:30N 38°02' E 023°31'1 0.8
2014-Aug-18 19:33N 38°02' E 023°31'0 0.0
2014-Aug-18 18:33N 38°02' E 023°31'0 0.0
2014-Aug-18 17:33N 38°02' E 023°31'0 0.0
2014-Aug-18 16:33N 38°02' E 023°31'0 0.0
2014-Aug-18 15:32N 38°02' E 023°31'0 0.0
2014-Aug-18 14:17N 38°02' E 023°31'3 4.1
2014-Aug-18 13:30N 37°59' E 023°33'5 5.3
2014-Aug-18 12:33N 37°57' E 023°38'0 0.0
2014-Aug-18 11:33N 37°57' E 023°38'0 0.0
2014-Aug-18 10:33N 37°57' E 023°38'0 0.0
2014-Aug-18 09:33N 37°57' E 023°38'5 5.0
2014-Aug-18 08:33N 37°59' E 023°33'2 1.8
2014-Aug-18 07:29N 38°01' E 023°32'0 0.1
2014-Aug-18 06:30N 38°01' E 023°32'5 2.6
2014-Aug-18 04:33N 37°57' E 023°36'2 0.8
2014-Aug-18 02:07N 37°57' E 023°38'2 0.2
2014-Aug-17 16:33N 37°58' E 023°37'0 0.0
2014-Aug-17 15:33N 37°58' E 023°37'0 0.0
2014-Aug-17 14:33N 37°58' E 023°37'0 0.0
2014-Aug-17 13:33N 37°58' E 023°37'0 0.0
2014-Aug-17 12:33N 37°58' E 023°37'0 0.0
2014-Aug-17 11:33N 37°58' E 023°37'0 0.0
2014-Aug-17 10:12N 37°58' E 023°37'0 0.0
2014-Aug-17 09:34N 37°58' E 023°37'0 0.0
2014-Aug-17 08:34N 37°58' E 023°37'0 0.0
2014-Aug-17 07:33N 37°58' E 023°37'0 0.0
2014-Aug-17 06:34N 37°58' E 023°37'0 0.0
2014-Aug-17 05:34N 37°58' E 023°37'0 0.0
2014-Aug-17 04:33N 37°58' E 023°37'0 0.0
2014-Aug-17 03:34N 37°58' E 023°37'0 0.0
2014-Aug-17 02:33N 37°58' E 023°37'0 0.0
2014-Aug-17 01:33N 37°58' E 023°37'0 0.0
2014-Aug-17 00:33N 37°58' E 023°37'0 0.0
2014-Aug-16 23:34N 37°58' E 023°37'0 0.0
2014-Aug-16 22:34N 37°58' E 023°37'0 0.0
2014-Aug-16 21:34N 37°58' E 023°37'0 0.0
2014-Aug-16 20:33N 37°58' E 023°37'0 0.0
2014-Aug-16 19:34N 37°58' E 023°37'0 0.0
2014-Aug-16 18:33N 37°58' E 023°37'0 0.0
2014-Aug-16 17:34N 37°58' E 023°37'0 0.0
2014-Aug-16 16:34N 37°58' E 023°37'0 0.0
2014-Aug-16 15:34N 37°58' E 023°37'0 0.0
2014-Aug-16 14:34N 37°58' E 023°37'0 0.0
2014-Aug-16 13:33N 37°58' E 023°37'0 0.0
2014-Aug-16 12:33N 37°58' E 023°37'0 0.0
2014-Aug-16 11:34N 37°58' E 023°37'0 0.0
2014-Aug-16 10:34N 37°58' E 023°37'0 0.0
2014-Aug-16 09:34N 37°58' E 023°37'0 0.0
2014-Aug-16 08:34N 37°58' E 023°37'0 0.0
2014-Aug-16 07:34N 37°58' E 023°37'0 0.0
2014-Aug-16 06:33N 37°58' E 023°37'0 0.0
2014-Aug-16 05:33N 37°58' E 023°37'1 1.3
2014-Aug-16 04:33N 37°56' E 023°37'1 1.0
2014-Aug-16 03:33N 37°57' E 023°38'0 0.0
2014-Aug-16 02:33N 37°57' E 023°38'2 1.5
2014-Aug-16 01:33N 37°58' E 023°37'0 0.0
2014-Aug-15 21:34N 37°58' E 023°37'0 0.0
2014-Aug-15 20:33N 37°58' E 023°37'0 0.0
2014-Aug-15 19:34N 37°58' E 023°37'0 0.0
2014-Aug-15 17:19N 37°58' E 023°37'0 0.0
2014-Aug-15 16:34N 37°58' E 023°37'0 0.0
2014-Aug-15 15:33N 37°58' E 023°37'0 0.0
2014-Aug-15 14:33N 37°58' E 023°37'0 0.0
2014-Aug-15 13:33N 37°58' E 023°37'0 0.0
2014-Aug-15 12:33N 37°58' E 023°37'0 0.0
2014-Aug-15 11:33N 37°58' E 023°37'0 0.0
2014-Aug-15 10:33N 37°58' E 023°37'0 0.0
2014-Aug-15 09:31N 37°58' E 023°37'0 0.0
2014-Aug-15 08:33N 37°58' E 023°37'0 0.0
2014-Aug-15 07:33N 37°58' E 023°37'0 0.0
2014-Aug-15 06:33N 37°58' E 023°37'0 0.0
2014-Aug-15 05:34N 37°58' E 023°37'0 0.0
2014-Aug-15 04:33N 37°58' E 023°37'0 0.0
2014-Aug-15 03:33N 37°58' E 023°37'0 0.0
2014-Aug-15 02:33N 37°58' E 023°37'0 0.0
2014-Aug-15 01:33N 37°58' E 023°37'0 0.0
2014-Aug-15 00:33N 37°58' E 023°37'0 0.0
2014-Aug-14 23:33N 37°58' E 023°37'0 0.0
2014-Aug-14 22:33N 37°58' E 023°37'0 0.0
2014-Aug-14 21:34N 37°58' E 023°37'0 0.0
2014-Aug-14 20:33N 37°58' E 023°37'0 0.0
2014-Aug-14 19:33N 37°58' E 023°37'0 0.0
2014-Aug-14 17:21N 37°58' E 023°37'0 0.0
2014-Aug-14 16:34N 37°58' E 023°37'0 0.0
2014-Aug-14 15:33N 37°58' E 023°37'0 0.0
2014-Aug-14 14:33N 37°58' E 023°37'0 0.0
2014-Aug-14 13:33N 37°58' E 023°37'0 0.0
2014-Aug-14 12:34N 37°58' E 023°37'0 0.0
2014-Aug-14 11:33N 37°58' E 023°37'0 0.2
2014-Aug-14 10:33N 37°57' E 023°36'4 4.0
2014-Aug-14 09:33N 38°01' E 023°35'1 0.8
2014-Aug-14 08:33N 38°02' E 023°36'0 0.0
2014-Aug-14 07:32N 38°02' E 023°36'0 0.0
2014-Aug-14 06:33N 38°02' E 023°36'0 0.0
2014-Aug-14 05:33N 38°02' E 023°36'0 0.4
2014-Aug-14 04:28N 38°02' E 023°35'1 1.6
2014-Aug-14 03:33N 38°00' E 023°34'5 5.2
2014-Aug-14 02:34N 37°57' E 023°38'0 0.0
2014-Aug-14 01:34N 37°57' E 023°38'0 0.2
2014-Aug-14 00:33N 37°57' E 023°38'2 1.3
2014-Aug-13 23:22N 37°58' E 023°37'0 0.0
2014-Aug-13 22:34N 37°58' E 023°37'0 0.0
2014-Aug-13 21:33N 37°58' E 023°37'0 0.0
2014-Aug-13 20:33N 37°58' E 023°37'0 0.0
2014-Aug-13 19:33N 37°58' E 023°37'0 0.0
2014-Aug-13 18:33N 37°58' E 023°37'0 0.0
2014-Aug-13 17:33N 37°58' E 023°37'0 0.0
2014-Aug-13 16:34N 37°58' E 023°37'0 0.0
2014-Aug-13 15:33N 37°58' E 023°37'0 0.0
2014-Aug-13 14:34N 37°58' E 023°37'0 0.0
2014-Aug-13 13:33N 37°58' E 023°37'0 0.0
2014-Aug-13 12:34N 37°58' E 023°37'0 0.0
2014-Aug-13 11:33N 37°58' E 023°37'1 1.4
2014-Aug-13 10:33N 37°56' E 023°38'0 0.0
2014-Aug-13 09:33N 37°56' E 023°38'0 0.0
2014-Aug-13 08:33N 37°56' E 023°38'0 0.0
2014-Aug-13 07:33N 37°56' E 023°38'0 0.0
2014-Aug-13 06:33N 37°56' E 023°38'2 1.7
2014-Aug-13 05:34N 37°57' E 023°36'1 0.8
2014-Aug-13 04:34N 37°58' E 023°37'  
Track history (hours):
 
Tides and Currents Weather Stations Pressure Air Temp Water Temp Dewpoint Dewpoint Depression Visibility Wind Speed Wind Dir Waves Ship Positions

Mandoudi

Last reported at 2014-Aug-23 03:33 UTC. Time now 2014-Aug-23 19:21 UTC.
Position N 37°58' E 023°37'.

Length 60 m; draft 4.6 m.

Type: Ship (hazmat cat A). MMSI: 237470200.

Date/timePositionNaut miles runAvg speedWind from/ knotsBaromVisibWave heightAir tempDewpointWater temp
2014-Aug-23 03:33N 37°58' E 023°37'0 0.0
2014-Aug-23 02:33N 37°58' E 023°37'0 0.0
2014-Aug-23 01:33N 37°58' E 023°37'0 0.0
2014-Aug-23 00:33N 37°58' E 023°37'0 0.0
2014-Aug-22 22:33N 37°58' E 023°37'0 0.0
2014-Aug-22 21:33N 37°58' E 023°37'0 0.0
2014-Aug-22 20:33N 37°58' E 023°37'0 0.0
2014-Aug-22 19:33N 37°58' E 023°37'0 0.0
2014-Aug-22 18:33N 37°58' E 023°37'0 0.0
2014-Aug-22 17:33N 37°58' E 023°37'0 0.0
2014-Aug-22 16:33N 37°58' E 023°37'0 0.0
2014-Aug-22 15:33N 37°58' E 023°37'0 0.0
2014-Aug-22 14:33N 37°58' E 023°37'0 0.0
2014-Aug-22 13:33N 37°58' E 023°37'0 0.0
2014-Aug-22 12:33N 37°58' E 023°37'1 1.0
2014-Aug-22 11:33N 37°57' E 023°36'5 1.2
2014-Aug-22 07:31N 38°02' E 023°35'0 0.2
2014-Aug-22 06:26N 38°02' E 023°35'0 0.0
2014-Aug-22 05:33N 38°02' E 023°35'2 1.6
2014-Aug-22 04:33N 38°00' E 023°34'5 5.3
2014-Aug-22 03:33N 37°56' E 023°38'0 0.3
2014-Aug-22 02:33N 37°57' E 023°38'0 0.0
2014-Aug-22 01:33N 37°57' E 023°38'2 1.5
2014-Aug-22 00:33N 37°58' E 023°37'0 0.0
2014-Aug-21 23:33N 37°58' E 023°37'0 0.0
2014-Aug-21 22:33N 37°58' E 023°37'0 0.0
2014-Aug-21 21:33N 37°58' E 023°37'0 0.0
2014-Aug-21 20:33N 37°58' E 023°37'0 0.0
2014-Aug-21 19:33N 37°58' E 023°37'0 0.0
2014-Aug-21 18:33N 37°58' E 023°37'0 0.0
2014-Aug-21 17:33N 37°58' E 023°37'0 0.0
2014-Aug-21 16:33N 37°58' E 023°37'0 0.0
2014-Aug-21 15:33N 37°58' E 023°37'0 0.0
2014-Aug-21 14:33N 37°58' E 023°37'0 0.0
2014-Aug-21 13:33N 37°58' E 023°37'0 0.0
2014-Aug-21 12:33N 37°58' E 023°37'0 0.0
2014-Aug-21 11:33N 37°58' E 023°37'1 1.4
2014-Aug-21 10:33N 37°57' E 023°38'0 0.0
2014-Aug-21 09:33N 37°57' E 023°38'0 0.0
2014-Aug-21 08:33N 37°57' E 023°38'0 0.3
2014-Aug-21 07:33N 37°56' E 023°38'0 0.0
2014-Aug-21 06:33N 37°56' E 023°38'0 0.0
2014-Aug-21 05:33N 37°56' E 023°38'4 4.2
2014-Aug-21 04:33N 37°58' E 023°33'4 4.2
2014-Aug-21 03:33N 38°01' E 023°31'0 0.0
2014-Aug-21 02:33N 38°01' E 023°31'0 0.0
2014-Aug-21 01:33N 38°01' E 023°31'0 0.0
2014-Aug-21 00:32N 38°01' E 023°31'0 0.0
2014-Aug-20 22:32N 38°02' E 023°31'0 0.0
2014-Aug-20 21:25N 38°02' E 023°31'1 0.1
2014-Aug-20 16:31N 38°02' E 023°31'0 0.0
2014-Aug-20 15:32N 38°02' E 023°31'0 0.0
2014-Aug-20 14:33N 38°02' E 023°31'1 0.9
2014-Aug-20 13:25N 38°01' E 023°31'0 0.0
2014-Aug-20 12:21N 38°01' E 023°31'6 0.8
2014-Aug-20 04:33N 37°57' E 023°37'1 1.4
2014-Aug-20 03:33N 37°57' E 023°38'0 0.0
2014-Aug-20 02:20N 37°57' E 023°38'2 0.1
2014-Aug-19 12:08N 37°57' E 023°36'2 2.1
2014-Aug-19 11:22N 37°57' E 023°38'0 0.0
2014-Aug-19 10:33N 37°57' E 023°38'0 0.0
2014-Aug-19 09:33N 37°57' E 023°38'0 0.0
2014-Aug-19 08:33N 37°57' E 023°38'0 0.1
2014-Aug-19 07:34N 37°57' E 023°38'0 0.2
2014-Aug-19 06:33N 37°57' E 023°38'1 0.9
2014-Aug-19 05:33N 37°56' E 023°37'6 5.2
2014-Aug-19 04:29N 38°00' E 023°32'2 1.6
2014-Aug-19 03:31N 38°02' E 023°31'0 0.0
2014-Aug-19 02:31N 38°02' E 023°31'0 0.0
2014-Aug-19 01:31N 38°02' E 023°31'0 0.0
2014-Aug-18 22:33N 38°02' E 023°31'0 0.0
2014-Aug-18 21:32N 38°02' E 023°31'0 0.0
2014-Aug-18 20:30N 38°02' E 023°31'1 0.8
2014-Aug-18 19:33N 38°02' E 023°31'0 0.0
2014-Aug-18 18:33N 38°02' E 023°31'0 0.0
2014-Aug-18 17:33N 38°02' E 023°31'0 0.0
2014-Aug-18 16:33N 38°02' E 023°31'0 0.0
2014-Aug-18 15:32N 38°02' E 023°31'0 0.0
2014-Aug-18 14:17N 38°02' E 023°31'3 4.1
2014-Aug-18 13:30N 37°59' E 023°33'5 5.3
2014-Aug-18 12:33N 37°57' E 023°38'0 0.0
2014-Aug-18 11:33N 37°57' E 023°38'0 0.0
2014-Aug-18 10:33N 37°57' E 023°38'0 0.0
2014-Aug-18 09:33N 37°57' E 023°38'5 5.0
2014-Aug-18 08:33N 37°59' E 023°33'2 1.8
2014-Aug-18 07:29N 38°01' E 023°32'0 0.1
2014-Aug-18 06:30N 38°01' E 023°32'5 2.6
2014-Aug-18 04:33N 37°57' E 023°36'2 0.8
2014-Aug-18 02:07N 37°57' E 023°38'2 0.2
2014-Aug-17 16:33N 37°58' E 023°37'0 0.0
2014-Aug-17 15:33N 37°58' E 023°37'0 0.0
2014-Aug-17 14:33N 37°58' E 023°37'0 0.0
2014-Aug-17 13:33N 37°58' E 023°37'0 0.0
2014-Aug-17 12:33N 37°58' E 023°37'0 0.0
2014-Aug-17 11:33N 37°58' E 023°37'0 0.0
2014-Aug-17 10:12N 37°58' E 023°37'0 0.0
2014-Aug-17 09:34N 37°58' E 023°37'0 0.0
2014-Aug-17 08:34N 37°58' E 023°37'0 0.0
2014-Aug-17 07:33N 37°58' E 023°37'0 0.0
2014-Aug-17 06:34N 37°58' E 023°37'0 0.0
2014-Aug-17 05:34N 37°58' E 023°37'0 0.0
2014-Aug-17 04:33N 37°58' E 023°37'0 0.0
2014-Aug-17 03:34N 37°58' E 023°37'0 0.0
2014-Aug-17 02:33N 37°58' E 023°37'0 0.0
2014-Aug-17 01:33N 37°58' E 023°37'0 0.0
2014-Aug-17 00:33N 37°58' E 023°37'0 0.0
2014-Aug-16 23:34N 37°58' E 023°37'0 0.0
2014-Aug-16 22:34N 37°58' E 023°37'0 0.0
2014-Aug-16 21:34N 37°58' E 023°37'0 0.0
2014-Aug-16 20:33N 37°58' E 023°37'0 0.0
2014-Aug-16 19:34N 37°58' E 023°37'0 0.0
2014-Aug-16 18:33N 37°58' E 023°37'0 0.0
2014-Aug-16 17:34N 37°58' E 023°37'0 0.0
2014-Aug-16 16:34N 37°58' E 023°37'0 0.0
2014-Aug-16 15:34N 37°58' E 023°37'0 0.0
2014-Aug-16 14:34N 37°58' E 023°37'0 0.0
2014-Aug-16 13:33N 37°58' E 023°37'0 0.0
2014-Aug-16 12:33N 37°58' E 023°37'0 0.0
2014-Aug-16 11:34N 37°58' E 023°37'0 0.0
2014-Aug-16 10:34N 37°58' E 023°37'0 0.0
2014-Aug-16 09:34N 37°58' E 023°37'0 0.0
2014-Aug-16 08:34N 37°58' E 023°37'0 0.0
2014-Aug-16 07:34N 37°58' E 023°37'0 0.0
2014-Aug-16 06:33N 37°58' E 023°37'0 0.0
2014-Aug-16 05:33N 37°58' E 023°37'1 1.3
2014-Aug-16 04:33N 37°56' E 023°37'1 1.0
2014-Aug-16 03:33N 37°57' E 023°38'0 0.0
2014-Aug-16 02:33N 37°57' E 023°38'2 1.5
2014-Aug-16 01:33N 37°58' E 023°37'0 0.0
2014-Aug-15 21:34N 37°58' E 023°37'0 0.0
2014-Aug-15 20:33N 37°58' E 023°37'0 0.0
2014-Aug-15 19:34N 37°58' E 023°37'0 0.0
2014-Aug-15 17:19N 37°58' E 023°37'0 0.0
2014-Aug-15 16:34N 37°58' E 023°37'0 0.0
2014-Aug-15 15:33N 37°58' E 023°37'0 0.0
2014-Aug-15 14:33N 37°58' E 023°37'0 0.0
2014-Aug-15 13:33N 37°58' E 023°37'0 0.0
2014-Aug-15 12:33N 37°58' E 023°37'0 0.0
2014-Aug-15 11:33N 37°58' E 023°37'0 0.0
2014-Aug-15 10:33N 37°58' E 023°37'0 0.0
2014-Aug-15 09:31N 37°58' E 023°37'0 0.0
2014-Aug-15 08:33N 37°58' E 023°37'0 0.0
2014-Aug-15 07:33N 37°58' E 023°37'0 0.0
2014-Aug-15 06:33N 37°58' E 023°37'0 0.0
2014-Aug-15 05:34N 37°58' E 023°37'0 0.0
2014-Aug-15 04:33N 37°58' E 023°37'0 0.0
2014-Aug-15 03:33N 37°58' E 023°37'0 0.0
2014-Aug-15 02:33N 37°58' E 023°37'0 0.0
2014-Aug-15 01:33N 37°58' E 023°37'0 0.0
2014-Aug-15 00:33N 37°58' E 023°37'0 0.0
2014-Aug-14 23:33N 37°58' E 023°37'0 0.0
2014-Aug-14 22:33N 37°58' E 023°37'0 0.0
2014-Aug-14 21:34N 37°58' E 023°37'0 0.0
2014-Aug-14 20:33N 37°58' E 023°37'0 0.0
2014-Aug-14 19:33N 37°58' E 023°37'0 0.0
2014-Aug-14 17:21N 37°58' E 023°37'0 0.0
2014-Aug-14 16:34N 37°58' E 023°37'0 0.0
2014-Aug-14 15:33N 37°58' E 023°37'0 0.0
2014-Aug-14 14:33N 37°58' E 023°37'0 0.0
2014-Aug-14 13:33N 37°58' E 023°37'0 0.0
2014-Aug-14 12:34N 37°58' E 023°37'0 0.0
2014-Aug-14 11:33N 37°58' E 023°37'0 0.2
2014-Aug-14 10:33N 37°57' E 023°36'4 4.0
2014-Aug-14 09:33N 38°01' E 023°35'1 0.8
2014-Aug-14 08:33N 38°02' E 023°36'0 0.0
2014-Aug-14 07:32N 38°02' E 023°36'0 0.0
2014-Aug-14 06:33N 38°02' E 023°36'0 0.0
2014-Aug-14 05:33N 38°02' E 023°36'0 0.4
2014-Aug-14 04:28N 38°02' E 023°35'1 1.6
2014-Aug-14 03:33N 38°00' E 023°34'5 5.2
2014-Aug-14 02:34N 37°57' E 023°38'0 0.0
2014-Aug-14 01:34N 37°57' E 023°38'0 0.2
2014-Aug-14 00:33N 37°57' E 023°38'2 1.3
2014-Aug-13 23:22N 37°58' E 023°37'0 0.0
2014-Aug-13 22:34N 37°58' E 023°37'0 0.0
2014-Aug-13 21:33N 37°58' E 023°37'0 0.0
2014-Aug-13 20:33N 37°58' E 023°37'0 0.0
2014-Aug-13 19:33N 37°58' E 023°37'0 0.0
2014-Aug-13 18:33N 37°58' E 023°37'0 0.0
2014-Aug-13 17:33N 37°58' E 023°37'0 0.0
2014-Aug-13 16:34N 37°58' E 023°37'0 0.0
2014-Aug-13 15:33N 37°58' E 023°37'0 0.0
2014-Aug-13 14:34N 37°58' E 023°37'0 0.0
2014-Aug-13 13:33N 37°58' E 023°37'0 0.0
2014-Aug-13 12:34N 37°58' E 023°37'0 0.0
2014-Aug-13 11:33N 37°58' E 023°37'1 1.4
2014-Aug-13 10:33N 37°56' E 023°38'0 0.0
2014-Aug-13 09:33N 37°56' E 023°38'0 0.0
2014-Aug-13 08:33N 37°56' E 023°38'0 0.0
2014-Aug-13 07:33N 37°56' E 023°38'0 0.0
2014-Aug-13 06:33N 37°56' E 023°38'2 1.7
2014-Aug-13 05:34N 37°57' E 023°36'1 0.8
2014-Aug-13 04:34N 37°58' E 023°37'  

Dump ship's entire track history